Time;durP1;ratioP1;P1;durP2;ratioP2;P2;SDS_P1;SDS_P2;PMS_P1;PMS_P2;Temp;Humidity;BMP_temperature;BMP_pressure;BME280_temperature;BME280_humidity;BME280_pressure;Samples;Min_cycle;Max_cycle;Signal;HPM_P1;HPM_P2
2022/12/21 00:00:14;;;;;;;;;;;8.20;99.90;;;;;;5029676;28;19999;-75
2022/12/21 00:02:40;;;;;;;;;;;8.20;99.90;;;;;;5042446;28;19909;-76
2022/12/21 00:05:06;;;;;;;;;;;8.20;99.90;;;;;;5029158;28;19913;-77
2022/12/21 00:07:32;;;;;;;;;;;8.20;99.90;;;;;;5041961;28;19913;-76
2022/12/21 00:09:57;;;;;;;;;;;8.20;99.90;;;;;;5030533;28;19909;-75
2022/12/21 00:12:23;;;;;;;;;;;8.10;99.90;;;;;;5092393;22;19933;-58
2022/12/21 00:14:49;;;;;;;;;;;8.20;99.90;;;;;;5026297;28;20035;-57
2022/12/21 00:17:14;;;;;;;;;;;8.10;99.90;;;;;;5031181;28;20345;-57
2022/12/21 00:19:40;;;;;;;;;;;8.10;99.90;;;;;;5029668;28;19920;-58
2022/12/21 00:22:06;;;;;;;;;;;8.10;99.90;;;;;;5028697;28;20302;-58
2022/12/21 00:24:32;;;;;;;;;;;8.10;99.90;;;;;;5028861;28;19913;-56
2022/12/21 00:26:57;;;;;;;;;;;8.10;99.90;;;;;;5029995;28;19967;-59
2022/12/21 00:29:23;;;;;;;;;;;8.10;99.90;;;;;;5027767;28;20004;-59
2022/12/21 00:31:49;;;;;;;;;;;8.10;99.90;;;;;;5030166;28;19924;-57
2022/12/21 00:34:19;;;;;;;;;;;8.10;99.90;;;;;;5021002;28;20455;-58
2022/12/21 00:36:45;;;;;;;;;;;8.00;99.90;;;;;;5027189;28;20501;-58
2022/12/21 00:39:10;;;;;;;;;;;8.10;99.90;;;;;;5027460;28;20103;-58
2022/12/21 00:41:36;;;;;;;;;;;8.00;99.90;;;;;;5031386;28;19936;-58
2022/12/21 00:44:01;;;;;;;;;;;8.00;99.90;;;;;;5026714;28;19963;-56
2022/12/21 00:46:31;;;;;;;;;;;8.00;99.90;;;;;;5031291;28;19920;-57
2022/12/21 00:48:57;;;;;;;;;;;8.00;99.90;;;;;;5020199;28;20376;-58
2022/12/21 00:51:23;;;;;;;;;;;8.00;99.90;;;;;;5025922;28;19920;-57
2022/12/21 00:53:49;;;;;;;;;;;8.00;99.90;;;;;;5030315;28;19941;-59
2022/12/21 00:56:15;;;;;;;;;;;8.00;99.90;;;;;;5030021;28;20007;-59
2022/12/21 00:58:41;;;;;;;;;;;8.00;99.90;;;;;;5030069;28;20373;-58
2022/12/21 01:01:09;;;;;;;;;;;7.90;99.90;;;;;;5024223;28;19917;-59
2022/12/21 01:03:34;;;;;;;;;;;8.00;99.90;;;;;;5022167;28;20016;-58
2022/12/21 01:06:00;;;;;;;;;;;8.00;99.90;;;;;;5031201;28;20040;-58
2022/12/21 01:08:26;;;;;;;;;;;7.90;99.90;;;;;;5024278;28;19913;-58
2022/12/21 01:10:58;;;;;;;;;;;7.90;99.90;;;;;;5030271;28;20343;-59
2022/12/21 01:13:24;;;;;;;;;;;7.90;99.90;;;;;;5027007;28;20505;-58
2022/12/21 01:15:50;;;;;;;;;;;7.90;99.90;;;;;;5022746;28;19940;-59
2022/12/21 01:18:15;;;;;;;;;;;7.90;99.90;;;;;;5031650;28;20298;-56
2022/12/21 01:20:44;;;;;;;;;;;7.90;99.90;;;;;;5027925;28;19915;-59
2022/12/21 01:23:10;;;;;;;;;;;7.90;99.90;;;;;;5031051;28;20003;-58
2022/12/21 01:25:35;;;;;;;;;;;8.00;99.90;;;;;;5026707;28;20008;-58
2022/12/21 01:28:01;;;;;;;;;;;7.90;99.90;;;;;;5025926;28;19913;-57
2022/12/21 01:30:26;;;;;;;;;;;7.90;99.90;;;;;;5023830;28;19909;-59
2022/12/21 01:32:52;;;;;;;;;;;7.90;99.90;;;;;;5028947;28;19909;-58
2022/12/21 01:35:18;;;;;;;;;;;7.90;99.90;;;;;;5031154;28;20360;-58
2022/12/21 01:37:43;;;;;;;;;;;7.90;99.90;;;;;;5030908;28;20000;-56
2022/12/21 01:40:10;;;;;;;;;;;7.80;99.90;;;;;;5027591;28;20314;-58
2022/12/21 01:42:35;;;;;;;;;;;7.80;99.90;;;;;;5026705;28;19921;-56
2022/12/21 01:45:02;;;;;;;;;;;7.80;99.90;;;;;;5029460;28;20302;-57
2022/12/21 01:47:34;;;;;;;;;;;7.80;99.90;;;;;;5031345;28;19916;-58
2022/12/21 01:50:02;;;;;;;;;;;7.80;99.90;;;;;;5024303;28;19914;-58
2022/12/21 01:52:29;;;;;;;;;;;7.80;99.90;;;;;;5026390;28;19917;-57
2022/12/21 01:54:57;;;;;;;;;;;7.80;99.90;;;;;;5020073;28;20312;-57
2022/12/21 01:57:23;;;;;;;;;;;7.80;99.90;;;;;;5021774;28;19974;-58
2022/12/21 01:59:54;;;;;;;;;;;7.80;99.90;;;;;;5027565;28;20413;-54
2022/12/21 02:02:22;;;;;;;;;;;7.80;99.90;;;;;;5026038;28;19983;-59
2022/12/21 02:04:49;;;;;;;;;;;7.70;99.90;;;;;;5024103;28;19964;-58
2022/12/21 02:07:15;;;;;;;;;;;7.70;99.90;;;;;;5030620;28;19913;-58
2022/12/21 02:09:42;;;;;;;;;;;7.70;99.90;;;;;;5025918;28;20026;-57
2022/12/21 02:12:10;;;;;;;;;;;7.70;99.90;;;;;;5024662;28;20071;-55
2022/12/21 02:14:39;;;;;;;;;;;7.70;99.90;;;;;;5028591;28;19966;-57
2022/12/21 02:17:13;;;;;;;;;;;7.70;99.90;;;;;;5023882;28;19913;-58
2022/12/21 02:20:02;;;;;;;;;;;7.70;99.90;;;;;;5029409;28;19917;-57
2022/12/21 02:22:27;;;;;;;;;;;7.70;99.90;;;;;;5007762;28;19920;-57
2022/12/21 02:25:07;;;;;;;;;;;7.70;99.90;;;;;;5038862;28;19917;-54
2022/12/21 02:27:58;;;;;;;;;;;7.70;99.90;;;;;;5019992;28;19914;-58
2022/12/21 02:30:30;;;;;;;;;;;7.60;99.90;;;;;;5030801;28;19909;-55
2022/12/21 02:32:55;;;;;;;;;;;7.60;99.90;;;;;;5018496;28;19932;-57
2022/12/21 02:35:39;;;;;;;;;;;7.60;99.90;;;;;;5045224;28;20363;-57
2022/12/21 02:38:23;;;;;;;;;;;7.60;99.90;;;;;;5023833;28;19909;-57
2022/12/21 02:40:55;;;;;;;;;;;7.60;99.90;;;;;;5029207;28;20235;-56
2022/12/21 02:46:07;;;;;;;;;;;7.60;99.90;;;;;;5029989;28;19915;-55
2022/12/21 02:48:37;;;;;;;;;;;7.50;99.90;;;;;;5025644;28;19913;-58
2022/12/21 02:51:05;;;;;;;;;;;7.60;99.90;;;;;;5028027;28;19916;-57
2022/12/21 02:53:36;;;;;;;;;;;7.60;99.90;;;;;;5024717;28;20078;-58
2022/12/21 02:56:01;;;;;;;;;;;7.60;99.90;;;;;;5027180;28;19913;-58
2022/12/21 02:58:27;;;;;;;;;;;7.60;99.90;;;;;;5029159;28;19924;-57
2022/12/21 03:00:52;;;;;;;;;;;7.60;99.90;;;;;;5029057;28;20059;-58
2022/12/21 03:03:50;;;;;;;;;;;7.50;99.90;;;;;;5028832;28;20386;-57
2022/12/21 03:06:24;;;;;;;;;;;7.50;99.90;;;;;;5025122;28;19964;-56
2022/12/21 03:08:50;;;;;;;;;;;7.50;99.90;;;;;;5019796;28;19913;-57
2022/12/21 03:11:15;;;;;;;;;;;7.50;99.90;;;;;;5029525;28;20012;-57
2022/12/21 03:13:45;;;;;;;;;;;7.50;99.90;;;;;;5024138;28;20304;-56
2022/12/21 03:16:40;;;;;;;;;;;7.50;99.90;;;;;;5028984;28;19921;-57
2022/12/21 03:19:30;;;;;;;;;;;7.50;99.90;;;;;;5015597;28;20032;-58
2022/12/21 03:21:58;;;;;;;;;;;7.50;99.90;;;;;;5021238;28;20358;-57
2022/12/21 03:24:30;;;;;;;;;;;7.50;99.90;;;;;;5026872;28;19920;-58
2022/12/21 03:26:58;;;;;;;;;;;7.40;99.90;;;;;;5021752;28;20008;-57
2022/12/21 03:29:30;;;;;;;;;;;7.40;99.90;;;;;;5029029;28;20008;-56
2022/12/21 03:31:59;;;;;;;;;;;7.40;99.90;;;;;;5027378;28;20306;-58
2022/12/21 03:34:30;;;;;;;;;;;7.50;99.90;;;;;;5023864;28;19959;-57
2022/12/21 03:36:58;;;;;;;;;;;7.40;99.90;;;;;;5017718;28;20280;-56
2022/12/21 03:39:26;;;;;;;;;;;7.50;99.90;;;;;;5019131;28;19914;-58
2022/12/21 03:41:56;;;;;;;;;;;7.50;99.90;;;;;;5029238;28;20283;-55
2022/12/21 03:44:25;;;;;;;;;;;7.40;99.90;;;;;;5028737;28;19909;-57
2022/12/21 03:46:57;;;;;;;;;;;7.40;99.90;;;;;;5044321;28;19913;-58
2022/12/21 03:49:25;;;;;;;;;;;7.40;99.90;;;;;;5029144;28;20265;-54
2022/12/21 03:51:56;;;;;;;;;;;7.40;99.90;;;;;;5031004;28;19919;-58
2022/12/21 03:54:25;;;;;;;;;;;7.40;99.90;;;;;;5030454;28;19921;-56
2022/12/21 03:56:50;;;;;;;;;;;7.40;99.90;;;;;;5031480;28;19917;-57
2022/12/21 03:59:16;;;;;;;;;;;7.40;99.90;;;;;;5015218;28;19920;-57
2022/12/21 04:01:42;;;;;;;;;;;7.40;99.90;;;;;;5033126;28;19919;-56
2022/12/21 04:04:15;;;;;;;;;;;7.40;99.90;;;;;;5030549;28;19913;-56
2022/12/21 04:06:41;;;;;;;;;;;7.40;99.90;;;;;;5031558;28;19913;-54
2022/12/21 04:09:07;;;;;;;;;;;7.40;99.90;;;;;;5027760;28;19921;-57
2022/12/21 04:14:18;;;;;;;;;;;7.30;99.90;;;;;;5030792;28;19971;-57
2022/12/21 04:16:43;;;;;;;;;;;7.30;99.90;;;;;;5032078;28;19920;-57
2022/12/21 04:21:53;;;;;;;;;;;7.30;99.90;;;;;;5024877;28;19924;-57
2022/12/21 04:29:46;;;;;;;;;;;7.30;99.90;;;;;;5027323;28;19920;-57
2022/12/21 04:32:12;;;;;;;;;;;7.30;99.90;;;;;;5031201;28;19914;-57
2022/12/21 04:34:37;;;;;;;;;;;7.30;99.90;;;;;;5022550;28;20391;-56
2022/12/21 04:39:47;;;;;;;;;;;7.20;99.90;;;;;;5027045;28;20054;-57
2022/12/21 04:42:12;;;;;;;;;;;7.20;99.90;;;;;;5029407;28;20012;-54
2022/12/21 04:44:37;;;;;;;;;;;7.20;99.90;;;;;;5030567;28;19913;-57
2022/12/21 04:47:03;;;;;;;;;;;7.20;99.90;;;;;;5028180;28;19913;-56
2022/12/21 04:49:28;;;;;;;;;;;7.20;99.90;;;;;;5030043;28;20314;-56
2022/12/21 04:51:54;;;;;;;;;;;7.20;99.90;;;;;;5032088;28;20490;-56
2022/12/21 04:54:20;;;;;;;;;;;7.20;99.90;;;;;;5029015;28;19913;-59
2022/12/21 04:56:45;;;;;;;;;;;7.20;99.90;;;;;;5026065;28;19923;-56
2022/12/21 04:59:11;;;;;;;;;;;7.20;99.90;;;;;;5028715;28;20329;-56
2022/12/21 05:01:36;;;;;;;;;;;7.20;99.90;;;;;;5029236;28;19920;-57
2022/12/21 05:04:05;;;;;;;;;;;7.20;99.90;;;;;;5027617;28;20000;-56
2022/12/21 05:06:31;;;;;;;;;;;7.20;99.90;;;;;;5047162;28;20494;-55
2022/12/21 05:08:57;;;;;;;;;;;7.10;99.90;;;;;;5026677;28;19956;-53
2022/12/21 05:11:23;;;;;;;;;;;7.10;99.90;;;;;;5025203;28;19913;-57
2022/12/21 05:13:49;;;;;;;;;;;7.10;99.90;;;;;;5029613;28;19921;-56
2022/12/21 05:16:17;;;;;;;;;;;7.10;99.90;;;;;;5031769;28;19971;-57
2022/12/21 05:18:43;;;;;;;;;;;7.10;99.90;;;;;;5024675;28;20061;-52
2022/12/21 05:21:08;;;;;;;;;;;7.10;99.90;;;;;;5031110;28;20541;-56
2022/12/21 05:23:34;;;;;;;;;;;7.10;99.90;;;;;;5024094;28;20014;-56
2022/12/21 05:26:01;;;;;;;;;;;7.00;99.90;;;;;;5028236;28;20291;-55
2022/12/21 05:28:27;;;;;;;;;;;7.00;99.90;;;;;;5029551;28;19913;-56
2022/12/21 05:30:52;;;;;;;;;;;7.00;99.90;;;;;;5029641;28;19913;-56
2022/12/21 05:33:17;;;;;;;;;;;6.90;99.90;;;;;;5030931;28;19929;-57
2022/12/21 05:35:43;;;;;;;;;;;6.90;99.90;;;;;;5030518;28;19921;-54
2022/12/21 05:38:08;;;;;;;;;;;6.90;99.90;;;;;;5030835;28;20287;-53
2022/12/21 05:40:34;;;;;;;;;;;6.80;99.90;;;;;;5026568;28;19948;-56
2022/12/21 05:43:00;;;;;;;;;;;6.80;99.90;;;;;;5027941;28;20420;-58
2022/12/21 05:45:26;;;;;;;;;;;6.80;99.90;;;;;;5030892;28;19913;-57
2022/12/21 05:47:51;;;;;;;;;;;6.80;99.90;;;;;;5028167;28;20016;-53
2022/12/21 05:50:17;;;;;;;;;;;6.80;99.90;;;;;;5023166;28;19914;-55
2022/12/21 05:52:42;;;;;;;;;;;6.70;99.90;;;;;;5019441;28;20008;-57
2022/12/21 05:55:08;;;;;;;;;;;6.70;99.90;;;;;;5029767;28;19924;-56
2022/12/21 05:57:33;;;;;;;;;;;6.70;99.90;;;;;;5026766;28;19920;-56
2022/12/21 05:59:59;;;;;;;;;;;6.70;99.90;;;;;;5027075;28;20371;-56
2022/12/21 06:02:24;;;;;;;;;;;6.60;99.90;;;;;;5030452;28;19983;-55
2022/12/21 06:04:50;;;;;;;;;;;6.60;99.90;;;;;;5024158;28;19914;-56
2022/12/21 06:07:15;;;;;;;;;;;6.60;99.90;;;;;;5030570;28;19955;-58
2022/12/21 06:09:40;;;;;;;;;;;6.60;99.90;;;;;;5028826;28;19917;-56
2022/12/21 06:12:06;;;;;;;;;;;6.60;99.90;;;;;;5025338;28;19917;-57
2022/12/21 06:14:31;;;;;;;;;;;6.60;99.90;;;;;;5027676;28;19917;-56
2022/12/21 06:16:57;;;;;;;;;;;6.60;99.90;;;;;;5021916;28;20028;-56
2022/12/21 06:19:22;;;;;;;;;;;6.60;99.90;;;;;;5028701;28;20280;-56
2022/12/21 06:21:48;;;;;;;;;;;6.60;99.90;;;;;;5027704;28;19926;-57
2022/12/21 06:24:13;;;;;;;;;;;6.50;99.90;;;;;;5023716;28;19913;-55
2022/12/21 06:26:39;;;;;;;;;;;6.60;99.90;;;;;;5029197;28;20000;-54
2022/12/21 06:29:04;;;;;;;;;;;6.60;99.90;;;;;;5025604;28;19920;-56
2022/12/21 06:31:30;;;;;;;;;;;6.60;99.90;;;;;;5022154;28;20480;-56
2022/12/21 06:33:55;;;;;;;;;;;6.50;99.90;;;;;;5030034;28;19913;-56
2022/12/21 06:36:21;;;;;;;;;;;6.50;99.90;;;;;;5029534;28;20397;-57
2022/12/21 06:38:46;;;;;;;;;;;6.50;99.90;;;;;;5026480;28;19913;-56
2022/12/21 06:41:13;;;;;;;;;;;6.50;99.90;;;;;;5019865;28;19956;-56
2022/12/21 06:43:39;;;;;;;;;;;6.50;99.90;;;;;;5029876;28;20342;-56
2022/12/21 06:46:07;;;;;;;;;;;6.50;99.90;;;;;;5025931;28;19923;-57
2022/12/21 06:48:33;;;;;;;;;;;6.50;99.90;;;;;;5028566;28;20401;-56
2022/12/21 06:51:06;;;;;;;;;;;6.50;99.90;;;;;;5026095;28;20399;-56
2022/12/21 06:53:33;;;;;;;;;;;6.50;99.90;;;;;;5025409;28;19909;-57
2022/12/21 06:56:02;;;;;;;;;;;6.50;99.90;;;;;;5025269;28;20290;-57
2022/12/21 06:58:28;;;;;;;;;;;6.50;99.90;;;;;;5025685;28;19979;-57
2022/12/21 07:00:53;;;;;;;;;;;6.50;99.90;;;;;;5025812;28;19921;-56
2022/12/21 07:03:19;;;;;;;;;;;6.50;99.90;;;;;;5025690;28;19913;-57
2022/12/21 07:05:45;;;;;;;;;;;6.40;99.90;;;;;;5025949;28;20269;-55
2022/12/21 07:08:10;;;;;;;;;;;6.40;99.90;;;;;;5027325;28;19913;-55
2022/12/21 07:10:39;;;;;;;;;;;6.40;99.90;;;;;;5029806;28;19959;-57
2022/12/21 07:13:05;;;;;;;;;;;6.40;99.90;;;;;;5025301;28;19916;-57
2022/12/21 07:15:34;;;;;;;;;;;6.40;99.90;;;;;;5027912;28;20464;-56
2022/12/21 07:18:00;;;;;;;;;;;6.40;99.90;;;;;;5029246;28;19913;-56
2022/12/21 07:20:26;;;;;;;;;;;6.40;99.90;;;;;;5018936;28;19914;-57
2022/12/21 07:22:51;;;;;;;;;;;6.40;99.90;;;;;;5024122;28;20004;-56
2022/12/21 07:25:16;;;;;;;;;;;6.30;99.90;;;;;;5018379;28;19914;-57
2022/12/21 07:27:42;;;;;;;;;;;6.30;99.90;;;;;;5028124;28;19974;-56
2022/12/21 07:30:08;;;;;;;;;;;6.30;99.90;;;;;;5025426;28;19913;-57
2022/12/21 07:32:33;;;;;;;;;;;6.30;99.90;;;;;;5028278;28;20438;-59
2022/12/21 07:34:59;;;;;;;;;;;6.30;99.90;;;;;;5023718;28;19913;-59
2022/12/21 07:37:24;;;;;;;;;;;6.30;99.90;;;;;;5029096;28;19922;-55
2022/12/21 07:39:50;;;;;;;;;;;6.30;99.90;;;;;;5023734;28;19917;-57
2022/12/21 07:42:15;;;;;;;;;;;6.20;99.90;;;;;;5026249;28;19913;-56
2022/12/21 07:44:40;;;;;;;;;;;6.20;99.90;;;;;;5025467;28;19964;-56
2022/12/21 07:47:06;;;;;;;;;;;6.20;99.90;;;;;;5022411;28;20101;-56
2022/12/21 07:49:33;;;;;;;;;;;6.20;99.90;;;;;;5028359;28;19917;-54
2022/12/21 07:51:59;;;;;;;;;;;6.20;99.90;;;;;;5024396;28;20545;-56
2022/12/21 07:54:25;;;;;;;;;;;6.10;99.90;;;;;;5025218;28;19916;-57
2022/12/21 07:56:50;;;;;;;;;;;6.10;99.90;;;;;;5043880;28;19917;-56
2022/12/21 07:59:16;;;;;;;;;;;6.10;99.90;;;;;;5025865;28;19909;-57
2022/12/21 08:01:41;;;;;;;;;;;6.10;99.90;;;;;;5021093;28;19987;-55
2022/12/21 08:04:07;;;;;;;;;;;6.10;99.90;;;;;;5024279;28;19982;-58
2022/12/21 08:06:33;;;;;;;;;;;6.10;99.90;;;;;;5019382;28;20020;-57
2022/12/21 08:08:59;;;;;;;;;;;6.10;99.90;;;;;;5021451;28;20031;-56
2022/12/21 08:11:25;;;;;;;;;;;6.10;99.90;;;;;;5022314;28;20369;-56
2022/12/21 08:13:50;;;;;;;;;;;6.10;99.90;;;;;;5023413;28;19913;-56
2022/12/21 08:16:17;;;;;;;;;;;6.10;99.90;;;;;;5028983;28;20016;-54
2022/12/21 08:18:42;;;;;;;;;;;6.10;99.90;;;;;;5023647;28;19913;-57
2022/12/21 08:21:07;;;;;;;;;;;6.10;99.90;;;;;;5028420;28;19916;-57
2022/12/21 08:23:33;;;;;;;;;;;6.10;99.90;;;;;;5024501;28;19966;-56
2022/12/21 08:25:59;;;;;;;;;;;6.10;99.90;;;;;;5025078;28;20051;-55
2022/12/21 08:28:25;;;;;;;;;;;6.20;99.90;;;;;;5028610;28;20294;-57
2022/12/21 08:30:50;;;;;;;;;;;6.20;99.90;;;;;;5021706;28;19913;-57
2022/12/21 08:33:16;;;;;;;;;;;6.20;99.90;;;;;;5021461;28;20394;-55
2022/12/21 08:35:44;;;;;;;;;;;6.20;99.90;;;;;;5021334;28;19917;-58
2022/12/21 08:38:10;;;;;;;;;;;6.20;99.90;;;;;;5031079;28;19916;-56
2022/12/21 08:40:35;;;;;;;;;;;6.20;99.90;;;;;;5026837;28;19909;-56
2022/12/21 08:43:01;;;;;;;;;;;6.20;99.90;;;;;;5031469;28;19915;-56
2022/12/21 08:45:26;;;;;;;;;;;6.20;99.90;;;;;;5032275;28;19909;-56
2022/12/21 08:47:52;;;;;;;;;;;6.20;99.90;;;;;;5026462;28;19909;-57
2022/12/21 08:50:17;;;;;;;;;;;6.20;99.90;;;;;;5032365;28;19960;-57
2022/12/21 08:52:43;;;;;;;;;;;6.30;99.90;;;;;;5024130;28;19909;-56
2022/12/21 08:55:08;;;;;;;;;;;6.30;99.90;;;;;;5031122;28;19947;-57
2022/12/21 08:57:34;;;;;;;;;;;6.30;99.90;;;;;;5026014;28;19909;-57
2022/12/21 08:59:59;;;;;;;;;;;6.30;99.90;;;;;;5028856;28;19909;-55
2022/12/21 09:02:25;;;;;;;;;;;6.30;99.90;;;;;;5047062;28;19913;-56
2022/12/21 09:04:50;;;;;;;;;;;6.30;99.90;;;;;;5026142;28;19993;-55
2022/12/21 09:07:15;;;;;;;;;;;6.30;99.90;;;;;;5030658;28;19913;-57
2022/12/21 09:09:42;;;;;;;;;;;6.30;99.90;;;;;;5031610;28;19975;-56
2022/12/21 09:12:08;;;;;;;;;;;6.40;99.90;;;;;;5031113;28;19968;-56
2022/12/21 09:14:33;;;;;;;;;;;6.40;99.90;;;;;;5029498;28;20017;-55
2022/12/21 09:16:59;;;;;;;;;;;6.40;99.90;;;;;;5026845;28;20324;-56
2022/12/21 09:19:25;;;;;;;;;;;6.40;99.90;;;;;;5027196;28;19921;-53
2022/12/21 09:21:50;;;;;;;;;;;6.40;99.90;;;;;;5030361;28;19924;-55
2022/12/21 09:24:16;;;;;;;;;;;6.50;99.90;;;;;;5028543;28;19910;-56
2022/12/21 09:26:42;;;;;;;;;;;6.50;99.90;;;;;;5031175;28;19974;-56
2022/12/21 09:29:09;;;;;;;;;;;6.50;99.90;;;;;;5027485;28;19921;-56
2022/12/21 09:31:34;;;;;;;;;;;6.60;99.90;;;;;;5028947;28;19917;-56
2022/12/21 09:34:00;;;;;;;;;;;6.50;99.90;;;;;;5019152;28;19916;-57
2022/12/21 09:36:26;;;;;;;;;;;6.60;99.90;;;;;;5031874;28;19917;-56
2022/12/21 09:38:51;;;;;;;;;;;6.60;99.90;;;;;;5027749;28;20008;-56
2022/12/21 09:41:17;;;;;;;;;;;6.60;99.90;;;;;;5026056;28;19952;-56
2022/12/21 09:43:46;;;;;;;;;;;6.60;99.90;;;;;;5030979;28;20320;-57
2022/12/21 09:46:13;;;;;;;;;;;6.60;99.90;;;;;;5029168;28;20024;-53
2022/12/21 09:48:48;;;;;;;;;;;6.70;99.90;;;;;;5029656;28;19913;-55
2022/12/21 09:51:24;;;;;;;;;;;6.70;99.90;;;;;;5030648;28;19913;-56
2022/12/21 09:53:55;;;;;;;;;;;6.70;99.90;;;;;;5028781;28;19996;-57
2022/12/21 09:56:23;;;;;;;;;;;6.70;99.90;;;;;;5030673;28;19917;-54
2022/12/21 09:58:49;;;;;;;;;;;6.70;99.90;;;;;;5027937;28;19917;-56
2022/12/21 10:01:27;;;;;;;;;;;6.80;99.90;;;;;;5023884;28;19948;-56
2022/12/21 10:04:06;;;;;;;;;;;6.70;99.90;;;;;;5030375;28;20425;-57
2022/12/21 10:06:45;;;;;;;;;;;6.70;99.90;;;;;;5029561;28;19920;-54
2022/12/21 10:09:20;;;;;;;;;;;6.80;99.90;;;;;;5030587;28;19913;-55
2022/12/21 10:11:50;;;;;;;;;;;6.80;99.90;;;;;;5028234;28;19917;-57
2022/12/21 10:14:32;;;;;;;;;;;6.80;99.90;;;;;;5028854;28;19963;-54
2022/12/21 10:17:18;;;;;;;;;;;6.80;99.90;;;;;;5020287;28;20016;-57
2022/12/21 10:20:02;;;;;;;;;;;6.80;99.90;;;;;;4988197;28;20003;-56
2022/12/21 10:22:30;;;;;;;;;;;6.80;99.90;;;;;;5021206;28;20297;-56
2022/12/21 10:25:01;;;;;;;;;;;6.90;99.90;;;;;;5027966;28;20426;-53
2022/12/21 10:27:36;;;;;;;;;;;6.90;99.90;;;;;;5030205;28;19913;-54
2022/12/21 10:30:01;;;;;;;;;;;6.90;99.90;;;;;;5025178;28;19964;-57
2022/12/21 10:32:29;;;;;;;;;;;6.90;99.90;;;;;;5017435;28;19920;-57
2022/12/21 10:45:57;;;;;;;23.33;10.98;;;6.90;99.90;;;;;;5093502;28;20460;-59
2022/12/21 10:48:23;;;;;;;17.95;11.27;;;7.20;99.90;;;;;;5072330;28;20489;-65
2022/12/21 10:50:51;;;;;;;21.30;11.73;;;7.10;99.90;;;;;;5111956;22;20456;-58
2022/12/21 10:53:26;;;;;;;17.73;10.98;;;7.10;99.90;;;;;;5086648;28;20509;-57
2022/12/21 10:55:55;;;;;;;19.40;12.23;;;7.10;99.90;;;;;;5089335;28;20025;-58
2022/12/21 10:58:24;;;;;;;17.02;11.57;;;7.10;99.90;;;;;;5085817;28;20025;-57
2022/12/21 11:00:53;;;;;;;23.77;12.63;;;7.10;99.90;;;;;;5092418;28;20375;-58
2022/12/21 11:03:39;;;;;;;23.05;12.73;;;7.10;99.90;;;;;;5088810;28;20036;-56
2022/12/21 11:06:18;;;;;;;21.05;11.65;;;7.10;99.90;;;;;;5101072;28;20397;-58
2022/12/21 11:08:47;;;;;;;26.20;13.02;;;7.10;99.90;;;;;;5105980;28;20020;-58
2022/12/21 11:11:34;;;;;;;20.85;12.25;;;7.10;99.90;;;;;;5103955;28;20020;-56
2022/12/21 11:14:14;;;;;;;25.92;14.75;;;7.20;99.90;;;;;;5102653;28;20051;-58
2022/12/21 11:16:40;;;;;;;29.45;14.75;;;7.30;99.90;;;;;;5103017;28;20023;-57
2022/12/21 11:19:16;;;;;;;24.00;12.60;;;7.20;99.90;;;;;;5105482;28;20020;-58
2022/12/21 11:21:53;;;;;;;20.85;12.60;;;7.30;99.90;;;;;;5102658;28;20394;-56
2022/12/21 11:24:32;;;;;;;23.20;12.02;;;7.30;99.90;;;;;;5110331;28;20023;-57
2022/12/21 11:27:18;;;;;;;31.02;13.50;;;7.20;99.90;;;;;;5105965;28;20113;-58
2022/12/21 11:30:00;;;;;;;24.90;14.25;;;7.30;99.90;;;;;;5103382;28;20462;-58
2022/12/21 11:32:29;;;;;;;22.92;13.38;;;7.30;99.90;;;;;;5104145;28;20032;-57
2022/12/21 11:34:57;;;;;;;26.35;13.40;;;7.30;99.90;;;;;;5105634;28;20606;-58
2022/12/21 11:37:38;;;;;;;24.13;13.05;;;7.20;99.90;;;;;;5087643;28;20020;-57
2022/12/21 11:40:14;;;;;;;20.40;13.43;;;7.30;99.90;;;;;;5106212;28;20035;-58
2022/12/21 11:42:58;;;;;;;23.95;13.90;;;7.30;99.90;;;;;;5099013;28;20453;-56
2022/12/21 11:45:38;;;;;;;23.65;13.88;;;7.30;99.90;;;;;;5100226;28;20016;-56
2022/12/21 11:48:29;;;;;;;27.73;13.00;;;7.30;99.90;;;;;;5092367;28;20059;-58
2022/12/21 11:51:36;;;;;;;24.88;12.95;;;7.30;99.90;;;;;;5089961;28;20078;-58
2022/12/21 11:54:51;;;;;;;30.48;12.88;;;7.30;99.90;;;;;;5091007;28;20089;-58
2022/12/21 11:57:55;;;;;;;26.23;13.02;;;7.30;99.90;;;;;;5085663;28;20047;-56
2022/12/21 12:00:23;;;;;;;29.00;13.77;;;7.30;99.90;;;;;;5099900;28;20020;-58
2022/12/21 12:03:04;;;;;;;28.27;14.13;;;7.30;99.90;;;;;;5092130;28;20050;-58
2022/12/21 12:05:51;;;;;;;22.67;13.20;;;7.30;99.90;;;;;;5091504;28;20518;-58
2022/12/21 12:08:43;;;;;;;28.50;15.80;;;7.30;99.90;;;;;;5090200;28;20039;-58
2022/12/21 12:11:36;;;;;;;28.42;14.52;;;7.30;99.90;;;;;;5091232;28;20100;-58
2022/12/21 12:14:27;;;;;;;27.80;13.30;;;7.30;99.90;;;;;;5091745;28;20495;-57
2022/12/21 12:17:29;;;;;;;24.98;14.23;;;7.30;99.90;;;;;;5086624;28;20085;-56
2022/12/21 12:20:16;;;;;;;26.90;13.82;;;7.30;99.90;;;;;;5054803;28;20024;-57
2022/12/21 12:23:05;;;;;;;29.52;15.05;;;7.30;99.90;;;;;;5079373;28;20047;-55
2022/12/21 12:25:48;;;;;;;26.67;14.50;;;7.30;99.90;;;;;;5083480;28;20052;-55
2022/12/21 12:28:35;;;;;;;26.58;13.98;;;7.30;99.90;;;;;;5092341;28;20082;-58
2022/12/21 12:31:15;;;;;;;22.17;13.60;;;7.30;99.90;;;;;;5087239;28;20036;-56
2022/12/21 12:34:01;;;;;;;30.40;16.17;;;7.30;99.90;;;;;;5089478;28;20058;-54
2022/12/21 12:36:30;;;;;;;27.92;14.88;;;7.30;99.90;;;;;;5089535;28;20024;-57
2022/12/21 12:39:01;;;;;;;26.45;14.55;;;7.30;99.90;;;;;;5097466;28;20043;-58
2022/12/21 12:41:36;;;;;;;24.73;13.65;;;7.30;99.90;;;;;;5094793;28;20440;-58
2022/12/21 12:44:30;;;;;;;25.02;13.38;;;7.30;99.90;;;;;;5090853;28;20077;-57
2022/12/21 12:47:02;;;;;;;28.40;14.80;;;7.30;99.90;;;;;;5085381;28;20371;-55
2022/12/21 12:49:36;;;;;;;26.00;15.23;;;7.30;99.90;;;;;;5090102;28;20089;-57
2022/12/21 12:52:25;;;;;;;26.55;16.63;;;7.20;99.90;;;;;;5090884;28;20429;-56
2022/12/21 12:55:06;;;;;;;30.08;15.98;;;7.20;99.90;;;;;;5074224;28;20086;-57
2022/12/21 12:57:43;;;;;;;28.58;14.68;;;7.20;99.90;;;;;;5084388;28;20024;-57
2022/12/21 13:00:16;;;;;;;25.02;14.18;;;7.20;99.90;;;;;;5071839;28;20555;-57
2022/12/21 13:03:16;;;;;;;30.00;14.68;;;7.20;99.90;;;;;;5069849;28;20027;-58
2022/12/21 13:06:02;;;;;;;30.45;15.27;;;7.20;99.90;;;;;;5094443;28;20562;-56
2022/12/21 13:08:48;;;;;;;31.95;16.40;;;7.20;99.90;;;;;;5089768;28;20699;-57
2022/12/21 13:11:39;;;;;;;24.70;15.90;;;7.20;99.90;;;;;;5087738;28;20568;-57
2022/12/21 13:14:17;;;;;;;33.88;16.27;;;7.20;99.90;;;;;;5090125;28;20293;-58
2022/12/21 13:16:52;;;;;;;29.67;16.65;;;7.20;99.90;;;;;;5065093;28;20024;-56
2022/12/21 13:19:21;;;;;;;35.50;16.95;;;7.20;99.90;;;;;;5089602;28;20247;-58
2022/12/21 13:21:51;;;;;;;33.40;16.35;;;7.20;99.90;;;;;;5084006;28;20020;-58
2022/12/21 13:24:33;;;;;;;40.40;16.70;;;7.20;99.90;;;;;;5090261;28;20024;-58
2022/12/21 13:27:07;;;;;;;31.90;16.80;;;7.20;99.90;;;;;;5085517;28;20036;-58
2022/12/21 13:30:00;;;;;;;32.00;16.98;;;7.20;99.90;;;;;;5084160;28;20032;-58
2022/12/21 13:32:34;;;;;;;33.05;16.98;;;7.20;99.90;;;;;;5090463;28;20118;-58
2022/12/21 13:35:04;;;;;;;29.85;18.42;;;7.20;99.90;;;;;;5089294;28;20038;-58
2022/12/21 13:37:30;;;;;;;30.05;17.13;;;7.10;99.90;;;;;;5089858;28;20050;-58
2022/12/21 13:40:21;;;;;;;36.10;17.85;;;7.10;99.90;;;;;;5089144;28;20491;-57
2022/12/21 13:43:08;;;;;;;33.65;16.60;;;7.10;99.90;;;;;;5078666;28;20040;-58
2022/12/21 13:45:40;;;;;;;28.90;16.77;;;7.10;99.90;;;;;;5081114;28;20024;-57
2022/12/21 13:48:13;;;;;;;32.40;17.73;;;7.10;99.90;;;;;;5070201;28;20392;-58
2022/12/21 13:50:41;;;;;;;33.00;16.80;;;7.00;99.90;;;;;;5088994;28;20035;-57
2022/12/21 13:53:34;;;;;;;28.58;15.68;;;7.00;99.90;;;;;;5089333;28;20563;-58
2022/12/21 13:56:32;;;;;;;32.45;15.15;;;7.00;99.90;;;;;;5088376;28;20032;-56
2022/12/21 13:59:03;;;;;;;34.58;18.58;;;6.90;99.90;;;;;;5084888;28;20060;-58
2022/12/21 14:01:46;;;;;;;32.50;15.65;;;6.90;99.90;;;;;;5090083;28;20084;-56
2022/12/21 14:04:19;;;;;;;24.73;15.13;;;6.90;99.90;;;;;;5091221;28;20117;-58
2022/12/21 14:06:53;;;;;;;32.67;15.40;;;6.90;99.90;;;;;;5089855;28;20023;-58
2022/12/21 14:09:38;;;;;;;27.35;14.15;;;6.80;99.90;;;;;;5092500;28;20095;-57
2022/12/21 14:12:34;;;;;;;30.38;15.10;;;6.80;99.90;;;;;;5095904;28;20073;-54
2022/12/21 14:15:20;;;;;;;27.40;13.85;;;6.80;99.90;;;;;;5088681;28;20031;-58
2022/12/21 14:17:48;;;;;;;30.80;14.93;;;6.80;99.90;;;;;;5088291;28;20028;-56
2022/12/21 14:20:26;;;;;;;26.02;13.77;;;6.80;99.90;;;;;;5096485;28;20016;-54
2022/12/21 14:22:53;;;;;;;30.02;14.48;;;6.80;99.90;;;;;;5089730;28;20028;-54
2022/12/21 14:25:30;;;;;;;26.80;14.38;;;6.70;99.90;;;;;;5097660;28;20024;-58
2022/12/21 14:28:13;;;;;;;31.60;13.63;;;6.70;99.90;;;;;;5091589;28;20020;-57
2022/12/21 14:30:48;;;;;;;33.35;14.95;;;6.70;99.90;;;;;;5084099;28;20028;-58
2022/12/21 14:33:20;;;;;;;28.48;14.10;;;6.70;99.90;;;;;;5092028;28;20487;-58
2022/12/21 14:36:16;;;;;;;34.65;14.60;;;6.60;99.90;;;;;;5070968;28;20024;-57
2022/12/21 14:38:42;;;;;;;33.80;15.00;;;6.70;99.90;;;;;;5100724;28;20026;-58
2022/12/21 14:41:07;;;;;;;34.70;14.23;;;6.70;99.90;;;;;;5090884;28;20340;-57
2022/12/21 14:44:05;;;;;;;39.38;14.88;;;6.60;99.90;;;;;;5095393;28;20016;-58